sensor_id;sensor_type;location;lat;lon;timestamp;temperature;humidity
11474;DHT22;5793;52.238;13.438;2023-03-01T00:01:40;-4.90;99.90
11474;DHT22;5793;52.238;13.438;2023-03-01T00:04:08;-5.00;99.90
11474;DHT22;5793;52.238;13.438;2023-03-01T00:06:35;-5.10;99.90
11474;DHT22;5793;52.238;13.438;2023-03-01T00:09:03;-5.10;99.90
11474;DHT22;5793;52.238;13.438;2023-03-01T00:11:32;-5.10;99.90
11474;DHT22;5793;52.238;13.438;2023-03-01T00:14:02;-5.10;99.90
11474;DHT22;5793;52.238;13.438;2023-03-01T00:16:36;-5.10;99.90
11474;DHT22;5793;52.238;13.438;2023-03-01T00:19:05;-5.10;99.90
11474;DHT22;5793;52.238;13.438;2023-03-01T00:21:33;-5.10;99.90
11474;DHT22;5793;52.238;13.438;2023-03-01T00:24:03;-5.10;99.90
11474;DHT22;5793;52.238;13.438;2023-03-01T00:26:30;-5.10;99.90
11474;DHT22;5793;52.238;13.438;2023-03-01T00:28:59;-5.20;99.90
11474;DHT22;5793;52.238;13.438;2023-03-01T00:31:29;-5.20;99.90
11474;DHT22;5793;52.238;13.438;2023-03-01T00:33:59;-5.20;99.90
11474;DHT22;5793;52.238;13.438;2023-03-01T00:36:32;-5.20;99.90
11474;DHT22;5793;52.238;13.438;2023-03-01T00:39:01;-5.20;99.90
11474;DHT22;5793;52.238;13.438;2023-03-01T00:41:30;-5.10;99.90
11474;DHT22;5793;52.238;13.438;2023-03-01T00:44:00;-5.10;99.90
11474;DHT22;5793;52.238;13.438;2023-03-01T00:46:29;-5.10;99.90
11474;DHT22;5793;52.238;13.438;2023-03-01T00:48:58;-5.10;99.90
11474;DHT22;5793;52.238;13.438;2023-03-01T00:51:28;-5.00;99.90
11474;DHT22;5793;52.238;13.438;2023-03-01T00:53:58;-5.10;99.90
11474;DHT22;5793;52.238;13.438;2023-03-01T00:56:27;-5.20;99.90
11474;DHT22;5793;52.238;13.438;2023-03-01T00:58:55;-5.20;99.90
11474;DHT22;5793;52.238;13.438;2023-03-01T01:01:25;-5.30;99.90
11474;DHT22;5793;52.238;13.438;2023-03-01T01:03:57;-5.30;99.90
11474;DHT22;5793;52.238;13.438;2023-03-01T01:06:27;-5.40;99.90
11474;DHT22;5793;52.238;13.438;2023-03-01T01:08:55;-5.50;99.90
11474;DHT22;5793;52.238;13.438;2023-03-01T01:11:26;-5.50;99.90
11474;DHT22;5793;52.238;13.438;2023-03-01T01:13:54;-5.50;99.90
11474;DHT22;5793;52.238;13.438;2023-03-01T01:16:24;-5.60;99.90
11474;DHT22;5793;52.238;13.438;2023-03-01T01:18:52;-5.60;99.90
11474;DHT22;5793;52.238;13.438;2023-03-01T01:21:22;-5.60;99.90
11474;DHT22;5793;52.238;13.438;2023-03-01T01:23:51;-5.70;99.90
11474;DHT22;5793;52.238;13.438;2023-03-01T01:26:21;-5.60;99.90
11474;DHT22;5793;52.238;13.438;2023-03-01T01:28:49;-5.60;99.90
11474;DHT22;5793;52.238;13.438;2023-03-01T01:31:18;-5.60;99.90
11474;DHT22;5793;52.238;13.438;2023-03-01T01:33:46;-5.60;99.90
11474;DHT22;5793;52.238;13.438;2023-03-01T01:36:14;-5.60;99.90
11474;DHT22;5793;52.238;13.438;2023-03-01T01:38:43;-5.50;99.90
11474;DHT22;5793;52.238;13.438;2023-03-01T01:41:12;-5.60;99.90
11474;DHT22;5793;52.238;13.438;2023-03-01T01:43:42;-5.50;99.90
11474;DHT22;5793;52.238;13.438;2023-03-01T01:46:16;-5.50;99.90
11474;DHT22;5793;52.238;13.438;2023-03-01T01:48:52;-5.60;99.90
11474;DHT22;5793;52.238;13.438;2023-03-01T01:51:23;-5.60;99.90
11474;DHT22;5793;52.238;13.438;2023-03-01T01:53:56;-5.50;99.90
11474;DHT22;5793;52.238;13.438;2023-03-01T01:56:27;-5.60;99.90
11474;DHT22;5793;52.238;13.438;2023-03-01T01:58:56;-5.60;99.90
11474;DHT22;5793;52.238;13.438;2023-03-01T02:01:25;-5.60;99.90
11474;DHT22;5793;52.238;13.438;2023-03-01T02:03:53;-5.60;99.90
11474;DHT22;5793;52.238;13.438;2023-03-01T02:06:25;-5.60;99.90
11474;DHT22;5793;52.238;13.438;2023-03-01T02:09:00;-5.60;99.90
11474;DHT22;5793;52.238;13.438;2023-03-01T02:11:30;-5.60;99.90
11474;DHT22;5793;52.238;13.438;2023-03-01T02:13:58;-5.60;99.90
11474;DHT22;5793;52.238;13.438;2023-03-01T02:16:27;-5.60;99.90
11474;DHT22;5793;52.238;13.438;2023-03-01T02:18:56;-5.60;99.90
11474;DHT22;5793;52.238;13.438;2023-03-01T02:21:33;-5.60;99.90
11474;DHT22;5793;52.238;13.438;2023-03-01T02:24:13;-5.70;99.90
11474;DHT22;5793;52.238;13.438;2023-03-01T02:26:50;-5.70;99.90
11474;DHT22;5793;52.238;13.438;2023-03-01T02:29:20;-5.70;99.90
11474;DHT22;5793;52.238;13.438;2023-03-01T02:31:49;-5.80;99.90
11474;DHT22;5793;52.238;13.438;2023-03-01T02:34:23;-5.90;99.90
11474;DHT22;5793;52.238;13.438;2023-03-01T02:36:55;-5.80;99.90
11474;DHT22;5793;52.238;13.438;2023-03-01T02:39:26;-5.80;99.90
11474;DHT22;5793;52.238;13.438;2023-03-01T02:41:55;-5.90;99.90
11474;DHT22;5793;52.238;13.438;2023-03-01T02:44:25;-5.90;99.90
11474;DHT22;5793;52.238;13.438;2023-03-01T02:46:56;-6.00;99.90
11474;DHT22;5793;52.238;13.438;2023-03-01T02:49:26;-6.00;99.90
11474;DHT22;5793;52.238;13.438;2023-03-01T02:52:21;-6.00;99.90
11474;DHT22;5793;52.238;13.438;2023-03-01T02:54:56;-6.00;99.90
11474;DHT22;5793;52.238;13.438;2023-03-01T02:57:27;-6.10;99.90
11474;DHT22;5793;52.238;13.438;2023-03-01T02:59:58;-6.10;99.90
11474;DHT22;5793;52.238;13.438;2023-03-01T03:02:29;-6.00;99.90
11474;DHT22;5793;52.238;13.438;2023-03-01T03:05:06;-6.10;99.90
11474;DHT22;5793;52.238;13.438;2023-03-01T03:07:36;-6.20;99.90
11474;DHT22;5793;52.238;13.438;2023-03-01T03:10:07;-6.00;99.90
11474;DHT22;5793;52.238;13.438;2023-03-01T03:12:35;-6.00;99.90
11474;DHT22;5793;52.238;13.438;2023-03-01T03:15:06;-5.90;99.90
11474;DHT22;5793;52.238;13.438;2023-03-01T03:17:36;-6.00;99.90
11474;DHT22;5793;52.238;13.438;2023-03-01T03:20:05;-6.00;99.90
11474;DHT22;5793;52.238;13.438;2023-03-01T03:22:37;-6.10;99.90
11474;DHT22;5793;52.238;13.438;2023-03-01T03:25:06;-6.30;99.90
11474;DHT22;5793;52.238;13.438;2023-03-01T03:27:36;-6.10;99.90
11474;DHT22;5793;52.238;13.438;2023-03-01T03:30:08;-6.20;99.90
11474;DHT22;5793;52.238;13.438;2023-03-01T03:32:38;-6.20;99.90
11474;DHT22;5793;52.238;13.438;2023-03-01T03:35:08;-6.30;99.90
11474;DHT22;5793;52.238;13.438;2023-03-01T03:37:37;-6.30;99.90
11474;DHT22;5793;52.238;13.438;2023-03-01T03:40:22;-6.40;99.90
11474;DHT22;5793;52.238;13.438;2023-03-01T03:42:50;-6.40;99.90
11474;DHT22;5793;52.238;13.438;2023-03-01T03:45:19;-6.20;99.90
11474;DHT22;5793;52.238;13.438;2023-03-01T03:47:47;-6.10;99.90
11474;DHT22;5793;52.238;13.438;2023-03-01T03:50:17;-6.20;99.90
11474;DHT22;5793;52.238;13.438;2023-03-01T03:52:45;-6.20;99.90
11474;DHT22;5793;52.238;13.438;2023-03-01T03:55:13;-6.20;99.90
11474;DHT22;5793;52.238;13.438;2023-03-01T03:57:41;-6.30;99.90
11474;DHT22;5793;52.238;13.438;2023-03-01T04:00:11;-6.20;99.90
11474;DHT22;5793;52.238;13.438;2023-03-01T04:02:41;-6.30;99.90
11474;DHT22;5793;52.238;13.438;2023-03-01T04:05:11;-6.30;99.90
11474;DHT22;5793;52.238;13.438;2023-03-01T04:07:39;-6.30;99.90
11474;DHT22;5793;52.238;13.438;2023-03-01T04:10:11;-6.40;99.90
11474;DHT22;5793;52.238;13.438;2023-03-01T04:12:39;-6.40;99.90
11474;DHT22;5793;52.238;13.438;2023-03-01T04:15:09;-6.40;99.90
11474;DHT22;5793;52.238;13.438;2023-03-01T04:17:42;-6.40;99.90
11474;DHT22;5793;52.238;13.438;2023-03-01T04:20:12;-6.50;99.90
11474;DHT22;5793;52.238;13.438;2023-03-01T04:22:40;-6.60;99.90
11474;DHT22;5793;52.238;13.438;2023-03-01T04:25:08;-6.60;99.90
11474;DHT22;5793;52.238;13.438;2023-03-01T04:27:41;-6.70;99.90
11474;DHT22;5793;52.238;13.438;2023-03-01T04:30:10;-6.70;99.90
11474;DHT22;5793;52.238;13.438;2023-03-01T04:32:38;-6.70;99.90
11474;DHT22;5793;52.238;13.438;2023-03-01T04:35:08;-6.70;99.90
11474;DHT22;5793;52.238;13.438;2023-03-01T04:37:36;-6.70;99.90
11474;DHT22;5793;52.238;13.438;2023-03-01T04:40:04;-6.70;99.90
11474;DHT22;5793;52.238;13.438;2023-03-01T04:42:42;-6.80;99.90
11474;DHT22;5793;52.238;13.438;2023-03-01T04:45:10;-6.70;99.90
11474;DHT22;5793;52.238;13.438;2023-03-01T04:47:40;-6.80;99.90
11474;DHT22;5793;52.238;13.438;2023-03-01T04:50:13;-6.80;99.90
11474;DHT22;5793;52.238;13.438;2023-03-01T04:52:41;-6.80;99.90
11474;DHT22;5793;52.238;13.438;2023-03-01T04:55:10;-6.80;99.90
11474;DHT22;5793;52.238;13.438;2023-03-01T04:57:38;-6.80;99.90
11474;DHT22;5793;52.238;13.438;2023-03-01T05:00:09;-6.80;99.90
11474;DHT22;5793;52.238;13.438;2023-03-01T05:02:51;-6.80;99.90
11474;DHT22;5793;52.238;13.438;2023-03-01T05:05:24;-6.70;99.90
11474;DHT22;5793;52.238;13.438;2023-03-01T05:07:53;-6.60;99.90
11474;DHT22;5793;52.238;13.438;2023-03-01T05:10:22;-6.50;99.90
11474;DHT22;5793;52.238;13.438;2023-03-01T05:12:50;-6.50;99.90
11474;DHT22;5793;52.238;13.438;2023-03-01T05:15:19;-6.50;99.90
11474;DHT22;5793;52.238;13.438;2023-03-01T05:17:48;-6.50;99.90
11474;DHT22;5793;52.238;13.438;2023-03-01T05:20:16;-6.50;99.90
11474;DHT22;5793;52.238;13.438;2023-03-01T05:22:45;-6.50;99.90
11474;DHT22;5793;52.238;13.438;2023-03-01T05:25:13;-6.60;99.90
11474;DHT22;5793;52.238;13.438;2023-03-01T05:27:44;-6.60;99.90
11474;DHT22;5793;52.238;13.438;2023-03-01T05:30:13;-6.70;99.90
11474;DHT22;5793;52.238;13.438;2023-03-01T05:32:41;-6.70;99.90
11474;DHT22;5793;52.238;13.438;2023-03-01T05:35:12;-6.70;99.90
11474;DHT22;5793;52.238;13.438;2023-03-01T05:37:41;-6.60;99.90
11474;DHT22;5793;52.238;13.438;2023-03-01T05:40:13;-6.60;99.90
11474;DHT22;5793;52.238;13.438;2023-03-01T05:42:43;-6.60;99.90
11474;DHT22;5793;52.238;13.438;2023-03-01T05:45:13;-6.60;99.90
11474;DHT22;5793;52.238;13.438;2023-03-01T05:47:42;-6.60;99.90
11474;DHT22;5793;52.238;13.438;2023-03-01T05:50:12;-6.50;99.90
11474;DHT22;5793;52.238;13.438;2023-03-01T05:52:40;-6.50;99.90
11474;DHT22;5793;52.238;13.438;2023-03-01T05:55:08;-6.60;99.90
11474;DHT22;5793;52.238;13.438;2023-03-01T05:57:37;-6.60;99.90
11474;DHT22;5793;52.238;13.438;2023-03-01T06:00:07;-6.70;99.90
11474;DHT22;5793;52.238;13.438;2023-03-01T06:02:35;-6.70;99.90
11474;DHT22;5793;52.238;13.438;2023-03-01T06:05:03;-6.70;99.90
11474;DHT22;5793;52.238;13.438;2023-03-01T06:07:31;-6.70;99.90
11474;DHT22;5793;52.238;13.438;2023-03-01T06:09:59;-6.70;99.90
11474;DHT22;5793;52.238;13.438;2023-03-01T06:12:30;-6.60;99.90
11474;DHT22;5793;52.238;13.438;2023-03-01T06:14:59;-6.60;99.90
11474;DHT22;5793;52.238;13.438;2023-03-01T06:17:30;-6.60;99.90
11474;DHT22;5793;52.238;13.438;2023-03-01T06:19:58;-6.60;99.90
11474;DHT22;5793;52.238;13.438;2023-03-01T06:22:26;-6.60;99.90
11474;DHT22;5793;52.238;13.438;2023-03-01T06:24:54;-6.50;99.90
11474;DHT22;5793;52.238;13.438;2023-03-01T06:27:22;-6.50;99.90
11474;DHT22;5793;52.238;13.438;2023-03-01T06:29:50;-6.40;99.90
11474;DHT22;5793;52.238;13.438;2023-03-01T06:32:20;-6.40;99.90
11474;DHT22;5793;52.238;13.438;2023-03-01T06:34:48;-6.20;99.90
11474;DHT22;5793;52.238;13.438;2023-03-01T06:37:15;-6.20;99.90
11474;DHT22;5793;52.238;13.438;2023-03-01T06:39:43;-6.20;99.90
11474;DHT22;5793;52.238;13.438;2023-03-01T06:42:11;-6.00;99.90
11474;DHT22;5793;52.238;13.438;2023-03-01T06:44:39;-6.00;99.90
11474;DHT22;5793;52.238;13.438;2023-03-01T06:47:06;-6.00;99.90
11474;DHT22;5793;52.238;13.438;2023-03-01T06:49:35;-6.00;99.90
11474;DHT22;5793;52.238;13.438;2023-03-01T06:52:03;-6.00;99.90
11474;DHT22;5793;52.238;13.438;2023-03-01T06:54:31;-5.90;99.90
11474;DHT22;5793;52.238;13.438;2023-03-01T06:56:59;-5.80;99.90
11474;DHT22;5793;52.238;13.438;2023-03-01T06:59:27;-5.70;99.90
11474;DHT22;5793;52.238;13.438;2023-03-01T07:01:54;-5.50;99.90
11474;DHT22;5793;52.238;13.438;2023-03-01T07:04:22;-5.40;99.90
11474;DHT22;5793;52.238;13.438;2023-03-01T07:06:51;-5.30;99.90
11474;DHT22;5793;52.238;13.438;2023-03-01T07:09:22;-5.10;99.90
11474;DHT22;5793;52.238;13.438;2023-03-01T07:11:50;-5.00;99.90
11474;DHT22;5793;52.238;13.438;2023-03-01T07:14:17;-4.90;99.90
11474;DHT22;5793;52.238;13.438;2023-03-01T07:16:46;-4.80;99.90
11474;DHT22;5793;52.238;13.438;2023-03-01T07:19:14;-4.70;99.90
11474;DHT22;5793;52.238;13.438;2023-03-01T07:21:42;-4.60;99.90
11474;DHT22;5793;52.238;13.438;2023-03-01T07:24:11;-4.40;99.90
11474;DHT22;5793;52.238;13.438;2023-03-01T07:26:39;-4.30;99.90
11474;DHT22;5793;52.238;13.438;2023-03-01T07:29:07;-4.10;99.90
11474;DHT22;5793;52.238;13.438;2023-03-01T07:31:35;-4.00;99.90
11474;DHT22;5793;52.238;13.438;2023-03-01T07:34:03;-3.70;99.90
11474;DHT22;5793;52.238;13.438;2023-03-01T07:36:31;-3.50;99.90
11474;DHT22;5793;52.238;13.438;2023-03-01T07:38:59;-3.20;99.90
11474;DHT22;5793;52.238;13.438;2023-03-01T07:41:30;-2.80;99.90
11474;DHT22;5793;52.238;13.438;2023-03-01T07:43:57;-2.60;99.90
11474;DHT22;5793;52.238;13.438;2023-03-01T07:46:25;-2.40;99.90
11474;DHT22;5793;52.238;13.438;2023-03-01T07:48:53;-2.20;99.90
11474;DHT22;5793;52.238;13.438;2023-03-01T07:51:21;-2.10;99.90
11474;DHT22;5793;52.238;13.438;2023-03-01T07:53:49;-1.90;99.90
11474;DHT22;5793;52.238;13.438;2023-03-01T07:56:16;-1.70;99.90
11474;DHT22;5793;52.238;13.438;2023-03-01T07:58:46;-1.40;99.90
11474;DHT22;5793;52.238;13.438;2023-03-01T08:01:18;-1.20;99.90
11474;DHT22;5793;52.238;13.438;2023-03-01T08:03:47;-1.10;99.90
11474;DHT22;5793;52.238;13.438;2023-03-01T08:06:16;-1.00;99.90
11474;DHT22;5793;52.238;13.438;2023-03-01T08:08:45;-0.90;99.90
11474;DHT22;5793;52.238;13.438;2023-03-01T08:11:14;-0.70;99.90
11474;DHT22;5793;52.238;13.438;2023-03-01T08:13:43;-0.60;99.90
11474;DHT22;5793;52.238;13.438;2023-03-01T08:16:14;-0.40;99.90
11474;DHT22;5793;52.238;13.438;2023-03-01T08:18:43;-0.30;99.90
11474;DHT22;5793;52.238;13.438;2023-03-01T08:21:12;-0.20;99.90
11474;DHT22;5793;52.238;13.438;2023-03-01T08:23:41;0.00;99.90
11474;DHT22;5793;52.238;13.438;2023-03-01T08:26:11;0.10;99.90
11474;DHT22;5793;52.238;13.438;2023-03-01T08:28:40;0.20;99.90
11474;DHT22;5793;52.238;13.438;2023-03-01T08:31:17;0.30;99.90
11474;DHT22;5793;52.238;13.438;2023-03-01T08:33:46;0.60;99.90
11474;DHT22;5793;52.238;13.438;2023-03-01T08:36:18;0.70;99.90
11474;DHT22;5793;52.238;13.438;2023-03-01T08:38:47;0.90;99.90
11474;DHT22;5793;52.238;13.438;2023-03-01T08:41:15;2.00;99.90
11474;DHT22;5793;52.238;13.438;2023-03-01T08:43:43;4.90;99.90
11474;DHT22;5793;52.238;13.438;2023-03-01T08:46:12;8.60;99.90
11474;DHT22;5793;52.238;13.438;2023-03-01T08:48:41;12.90;74.50
11474;DHT22;5793;52.238;13.438;2023-03-01T08:51:11;16.20;55.90
11474;DHT22;5793;52.238;13.438;2023-03-01T08:53:41;18.50;50.10
11474;DHT22;5793;52.238;13.438;2023-03-01T08:56:10;19.70;46.30
11474;DHT22;5793;52.238;13.438;2023-03-01T08:58:38;21.10;43.60
11474;DHT22;5793;52.238;13.438;2023-03-01T09:01:07;22.80;40.90
11474;DHT22;5793;52.238;13.438;2023-03-01T09:03:36;23.80;38.50
11474;DHT22;5793;52.238;13.438;2023-03-01T09:06:06;25.10;37.30
11474;DHT22;5793;52.238;13.438;2023-03-01T09:08:35;26.00;35.80
11474;DHT22;5793;52.238;13.438;2023-03-01T09:11:04;26.40;34.40
11474;DHT22;5793;52.238;13.438;2023-03-01T09:13:32;27.10;33.40
11474;DHT22;5793;52.238;13.438;2023-03-01T09:16:02;25.50;33.00
11474;DHT22;5793;52.238;13.438;2023-03-01T09:18:32;25.20;33.90
11474;DHT22;5793;52.238;13.438;2023-03-01T09:21:05;23.80;34.20
11474;DHT22;5793;52.238;13.438;2023-03-01T09:23:34;25.10;34.90
11474;DHT22;5793;52.238;13.438;2023-03-01T09:26:05;25.90;32.90
11474;DHT22;5793;52.238;13.438;2023-03-01T09:28:33;26.50;32.90
11474;DHT22;5793;52.238;13.438;2023-03-01T09:31:02;26.60;31.70
11474;DHT22;5793;52.238;13.438;2023-03-01T09:33:31;24.80;31.50
11474;DHT22;5793;52.238;13.438;2023-03-01T09:36:01;24.50;33.90
11474;DHT22;5793;52.238;13.438;2023-03-01T09:38:30;23.40;33.40
11474;DHT22;5793;52.238;13.438;2023-03-01T09:40:59;24.30;33.00
11474;DHT22;5793;52.238;13.438;2023-03-01T09:43:31;23.10;31.60
11474;DHT22;5793;52.238;13.438;2023-03-01T09:46:05;23.30;32.40
11474;DHT22;5793;52.238;13.438;2023-03-01T09:48:42;24.00;32.20
11474;DHT22;5793;52.238;13.438;2023-03-01T09:51:17;22.30;33.40
11474;DHT22;5793;52.238;13.438;2023-03-01T09:53:47;22.80;32.90
11474;DHT22;5793;52.238;13.438;2023-03-01T09:56:19;22.70;31.60
11474;DHT22;5793;52.238;13.438;2023-03-01T09:58:53;22.40;31.50
11474;DHT22;5793;52.238;13.438;2023-03-01T10:01:28;22.40;32.10
11474;DHT22;5793;52.238;13.438;2023-03-01T10:04:09;23.20;32.40
11474;DHT22;5793;52.238;13.438;2023-03-01T10:06:44;24.70;30.90
11474;DHT22;5793;52.238;13.438;2023-03-01T10:09:17;26.70;29.80
11474;DHT22;5793;52.238;13.438;2023-03-01T10:11:50;27.00;29.00
11474;DHT22;5793;52.238;13.438;2023-03-01T10:14:28;27.40;28.30
11474;DHT22;5793;52.238;13.438;2023-03-01T10:16:59;24.80;28.50
11474;DHT22;5793;52.238;13.438;2023-03-01T10:19:32;23.50;29.80
11474;DHT22;5793;52.238;13.438;2023-03-01T10:22:05;21.90;30.30
11474;DHT22;5793;52.238;13.438;2023-03-01T10:24:40;22.30;31.20
11474;DHT22;5793;52.238;13.438;2023-03-01T10:27:14;22.70;30.60
11474;DHT22;5793;52.238;13.438;2023-03-01T10:29:49;22.70;29.70
11474;DHT22;5793;52.238;13.438;2023-03-01T10:32:18;22.30;30.30
11474;DHT22;5793;52.238;13.438;2023-03-01T10:34:50;21.70;30.90
11474;DHT22;5793;52.238;13.438;2023-03-01T10:37:20;21.70;30.30
11474;DHT22;5793;52.238;13.438;2023-03-01T10:40:02;21.30;29.90
11474;DHT22;5793;52.238;13.438;2023-03-01T10:42:35;19.10;31.90
11474;DHT22;5793;52.238;13.438;2023-03-01T10:45:33;20.20;33.00
11474;DHT22;5793;52.238;13.438;2023-03-01T10:48:12;20.70;32.40
11474;DHT22;5793;52.238;13.438;2023-03-01T10:50:41;21.70;31.80
11474;DHT22;5793;52.238;13.438;2023-03-01T10:53:22;22.10;31.10
11474;DHT22;5793;52.238;13.438;2023-03-01T10:56:03;22.50;31.20
11474;DHT22;5793;52.238;13.438;2023-03-01T10:58:32;23.90;30.30
11474;DHT22;5793;52.238;13.438;2023-03-01T11:01:02;23.50;29.20
11474;DHT22;5793;52.238;13.438;2023-03-01T11:03:32;22.00;30.20
11474;DHT22;5793;52.238;13.438;2023-03-01T11:06:04;22.50;30.80
11474;DHT22;5793;52.238;13.438;2023-03-01T11:08:36;21.90;31.10
11474;DHT22;5793;52.238;13.438;2023-03-01T11:11:15;22.00;30.10
11474;DHT22;5793;52.238;13.438;2023-03-01T11:13:51;21.30;30.00
11474;DHT22;5793;52.238;13.438;2023-03-01T11:16:24;20.50;32.20
11474;DHT22;5793;52.238;13.438;2023-03-01T11:18:57;19.60;31.80
11474;DHT22;5793;52.238;13.438;2023-03-01T11:21:28;17.80;33.30
11474;DHT22;5793;52.238;13.438;2023-03-01T11:23:58;17.50;34.70
11474;DHT22;5793;52.238;13.438;2023-03-01T11:26:28;17.90;34.70
11474;DHT22;5793;52.238;13.438;2023-03-01T11:29:02;17.00;35.50
11474;DHT22;5793;52.238;13.438;2023-03-01T11:31:32;17.30;36.10
11474;DHT22;5793;52.238;13.438;2023-03-01T11:34:06;17.60;35.80
11474;DHT22;5793;52.238;13.438;2023-03-01T11:36:42;16.10;36.30
11474;DHT22;5793;52.238;13.438;2023-03-01T11:39:18;14.90;39.40
11474;DHT22;5793;52.238;13.438;2023-03-01T11:41:56;14.10;38.70
11474;DHT22;5793;52.238;13.438;2023-03-01T11:44:47;12.60;40.70
11474;DHT22;5793;52.238;13.438;2023-03-01T11:47:30;12.00;42.70
11474;DHT22;5793;52.238;13.438;2023-03-01T11:50:11;10.90;44.20
11474;DHT22;5793;52.238;13.438;2023-03-01T11:52:48;10.20;45.80
11474;DHT22;5793;52.238;13.438;2023-03-01T11:55:29;9.20;49.60
11474;DHT22;5793;52.238;13.438;2023-03-01T11:58:16;8.80;50.30
11474;DHT22;5793;52.238;13.438;2023-03-01T12:01:11;8.40;50.50
11474;DHT22;5793;52.238;13.438;2023-03-01T12:07:01;8.40;47.80
11474;DHT22;5793;52.238;13.438;2023-03-01T12:09:44;8.40;49.50
11474;DHT22;5793;52.238;13.438;2023-03-01T12:12:31;8.60;50.40
11474;DHT22;5793;52.238;13.438;2023-03-01T12:18:27;8.40;52.20
11474;DHT22;5793;52.238;13.438;2023-03-01T12:21:02;8.40;54.00
11474;DHT22;5793;52.238;13.438;2023-03-01T12:26:34;8.70;54.40
11474;DHT22;5793;52.238;13.438;2023-03-01T12:29:23;8.70;53.60
11474;DHT22;5793;52.238;13.438;2023-03-01T12:32:26;8.60;53.50
11474;DHT22;5793;52.238;13.438;2023-03-01T12:38:08;8.30;54.00
11474;DHT22;5793;52.238;13.438;2023-03-01T12:40:46;8.40;54.60
11474;DHT22;5793;52.238;13.438;2023-03-01T12:43:27;8.40;54.90
11474;DHT22;5793;52.238;13.438;2023-03-01T12:46:15;8.60;55.40
11474;DHT22;5793;52.238;13.438;2023-03-01T12:48:56;8.90;55.20
11474;DHT22;5793;52.238;13.438;2023-03-01T12:51:30;9.00;54.00
11474;DHT22;5793;52.238;13.438;2023-03-01T12:54:01;8.80;53.60
11474;DHT22;5793;52.238;13.438;2023-03-01T12:56:35;8.40;54.00
11474;DHT22;5793;52.238;13.438;2023-03-01T12:59:12;8.40;54.00
11474;DHT22;5793;52.238;13.438;2023-03-01T13:01:48;8.60;54.60
11474;DHT22;5793;52.238;13.438;2023-03-01T13:04:38;8.80;55.20
11474;DHT22;5793;52.238;13.438;2023-03-01T13:07:16;9.00;54.60
11474;DHT22;5793;52.238;13.438;2023-03-01T13:09:50;9.00;53.70
11474;DHT22;5793;52.238;13.438;2023-03-01T13:15:34;8.80;55.20
11474;DHT22;5793;52.238;13.438;2023-03-01T13:18:04;8.90;54.60
11474;DHT22;5793;52.238;13.438;2023-03-01T13:20:45;9.00;54.70
11474;DHT22;5793;52.238;13.438;2023-03-01T13:23:24;9.00;54.10
11474;DHT22;5793;52.238;13.438;2023-03-01T13:26:04;8.80;53.70
11474;DHT22;5793;52.238;13.438;2023-03-01T13:28:55;8.80;53.80
11474;DHT22;5793;52.238;13.438;2023-03-01T13:34:42;9.00;53.80
11474;DHT22;5793;52.238;13.438;2023-03-01T13:37:20;8.90;53.60
11474;DHT22;5793;52.238;13.438;2023-03-01T13:39:48;8.70;53.80
11474;DHT22;5793;52.238;13.438;2023-03-01T13:42:32;8.60;54.60
11474;DHT22;5793;52.238;13.438;2023-03-01T13:45:01;8.50;54.90
11474;DHT22;5793;52.238;13.438;2023-03-01T13:47:29;8.40;55.30
11474;DHT22;5793;52.238;13.438;2023-03-01T13:49:59;8.30;54.60
11474;DHT22;5793;52.238;13.438;2023-03-01T13:52:40;8.20;53.00
11474;DHT22;5793;52.238;13.438;2023-03-01T13:55:17;8.00;53.30
11474;DHT22;5793;52.238;13.438;2023-03-01T13:57:48;8.10;53.00
11474;DHT22;5793;52.238;13.438;2023-03-01T14:00:32;8.00;53.60
11474;DHT22;5793;52.238;13.438;2023-03-01T14:03:09;8.10;54.60
11474;DHT22;5793;52.238;13.438;2023-03-01T14:05:38;8.00;53.50
11474;DHT22;5793;52.238;13.438;2023-03-01T14:08:22;8.00;53.50
11474;DHT22;5793;52.238;13.438;2023-03-01T14:11:09;8.10;53.50
11474;DHT22;5793;52.238;13.438;2023-03-01T14:13:53;8.20;53.10
11474;DHT22;5793;52.238;13.438;2023-03-01T14:16:33;8.00;52.60
11474;DHT22;5793;52.238;13.438;2023-03-01T14:19:14;7.80;52.10
11474;DHT22;5793;52.238;13.438;2023-03-01T14:21:59;7.60;52.40
11474;DHT22;5793;52.238;13.438;2023-03-01T14:24:34;7.60;52.30
11474;DHT22;5793;52.238;13.438;2023-03-01T14:27:11;7.60;53.30
11474;DHT22;5793;52.238;13.438;2023-03-01T14:29:39;7.70;53.80
11474;DHT22;5793;52.238;13.438;2023-03-01T14:32:15;7.60;53.10
11474;DHT22;5793;52.238;13.438;2023-03-01T14:34:47;7.60;52.50
11474;DHT22;5793;52.238;13.438;2023-03-01T14:37:22;7.40;52.40
11474;DHT22;5793;52.238;13.438;2023-03-01T14:39:52;7.20;52.30
11474;DHT22;5793;52.238;13.438;2023-03-01T14:42:22;7.30;52.90
11474;DHT22;5793;52.238;13.438;2023-03-01T14:44:52;7.20;52.90
11474;DHT22;5793;52.238;13.438;2023-03-01T14:47:26;7.20;53.90
11474;DHT22;5793;52.238;13.438;2023-03-01T14:49:58;7.30;53.20
11474;DHT22;5793;52.238;13.438;2023-03-01T14:52:33;7.40;53.20
11474;DHT22;5793;52.238;13.438;2023-03-01T14:55:05;7.50;53.30
11474;DHT22;5793;52.238;13.438;2023-03-01T14:57:34;7.50;52.70
11474;DHT22;5793;52.238;13.438;2023-03-01T15:00:05;7.50;51.80
11474;DHT22;5793;52.238;13.438;2023-03-01T15:02:34;7.30;51.80
11474;DHT22;5793;52.238;13.438;2023-03-01T15:05:04;7.30;52.30
11474;DHT22;5793;52.238;13.438;2023-03-01T15:07:37;7.40;52.40
11474;DHT22;5793;52.238;13.438;2023-03-01T15:10:17;7.40;52.90
11474;DHT22;5793;52.238;13.438;2023-03-01T15:12:46;7.40;52.70
11474;DHT22;5793;52.238;13.438;2023-03-01T15:15:33;7.40;52.60
11474;DHT22;5793;52.238;13.438;2023-03-01T15:18:03;7.40;52.60
11474;DHT22;5793;52.238;13.438;2023-03-01T15:20:33;7.50;52.50
11474;DHT22;5793;52.238;13.438;2023-03-01T15:23:03;7.40;52.40
11474;DHT22;5793;52.238;13.438;2023-03-01T15:25:33;7.50;52.80
11474;DHT22;5793;52.238;13.438;2023-03-01T15:28:02;7.40;52.60
11474;DHT22;5793;52.238;13.438;2023-03-01T15:30:32;7.30;52.50
11474;DHT22;5793;52.238;13.438;2023-03-01T15:33:18;7.20;51.90
11474;DHT22;5793;52.238;13.438;2023-03-01T15:35:48;7.10;51.80
11474;DHT22;5793;52.238;13.438;2023-03-01T15:38:31;7.10;52.20
11474;DHT22;5793;52.238;13.438;2023-03-01T15:41:03;7.00;51.60
11474;DHT22;5793;52.238;13.438;2023-03-01T15:43:43;7.00;52.20
11474;DHT22;5793;52.238;13.438;2023-03-01T15:46:20;7.00;53.20
11474;DHT22;5793;52.238;13.438;2023-03-01T15:48:52;6.90;53.70
11474;DHT22;5793;52.238;13.438;2023-03-01T15:51:27;6.80;54.10
11474;DHT22;5793;52.238;13.438;2023-03-01T15:53:58;6.70;53.50
11474;DHT22;5793;52.238;13.438;2023-03-01T15:56:28;6.70;54.10
11474;DHT22;5793;52.238;13.438;2023-03-01T15:59:01;6.60;53.50
11474;DHT22;5793;52.238;13.438;2023-03-01T16:01:29;6.60;53.50
11474;DHT22;5793;52.238;13.438;2023-03-01T16:04:00;6.40;54.40
11474;DHT22;5793;52.238;13.438;2023-03-01T16:06:28;6.30;54.70
11474;DHT22;5793;52.238;13.438;2023-03-01T16:08:56;6.20;55.30
11474;DHT22;5793;52.238;13.438;2023-03-01T16:11:24;6.20;55.80
11474;DHT22;5793;52.238;13.438;2023-03-01T16:13:53;6.20;56.40
11474;DHT22;5793;52.238;13.438;2023-03-01T16:16:21;6.10;56.60
11474;DHT22;5793;52.238;13.438;2023-03-01T16:18:49;6.10;57.50
11474;DHT22;5793;52.238;13.438;2023-03-01T16:21:22;6.00;57.70
11474;DHT22;5793;52.238;13.438;2023-03-01T16:23:51;5.80;57.60